This is the latest recevied weather packets stored in our database for station/object SP8AQK-13. If no packets are shown the sender has not sent any weather packets the latest 10 day(s).
| Time | Temp. | Humidity | Pressure | Rain* | Wind** | Luminosity | Snow |
|---|---|---|---|---|---|---|---|
| 1777539749 | 12.22° C | 35% | 1031.6 hPa | - | - | - | - |
| 1777538548 | 12.22° C | 36% | 1032 hPa | - | - | - | - |
| 1777537347 | 10.56° C | 37% | 1032.1 hPa | - | - | - | - |
| 1777536147 | 10° C | 38% | 1032.5 hPa | - | - | - | - |
| 1777534948 | 11.67° C | 38% | 1032.2 hPa | - | - | - | - |
| 1777533745 | 10° C | 43% | 1032.5 hPa | - | - | - | - |
| 1777532545 | 9.44° C | 47% | 1032.7 hPa | - | - | - | - |
| 1777531344 | 8.89° C | 49% | 1032.8 hPa | - | - | - | - |
| 1777530143 | 7.22° C | 54% | 1033.2 hPa | - | - | - | - |
| 1777528942 | 5.56° C | 59% | 1033.2 hPa | - | - | - | - |
| 1777527742 | 3.89° C | 67% | 1033.4 hPa | - | - | - | - |
| 1777526541 | 1.67° C | 78% | 1033.6 hPa | - | - | - | - |
| 1777525340 | 0° C | 83% | 1033.7 hPa | - | - | - | - |
| 1777524139 | -1.11° C | 86% | 1033.7 hPa | - | - | - | - |
| 1777522939 | -1.67° C | 89% | 1033.8 hPa | - | - | - | - |
| 1777521738 | -2.22° C | 89% | 1033.7 hPa | - | - | - | - |
| 1777520537 | -2.78° C | 89% | 1033.7 hPa | - | - | - | - |
| 1777519336 | -2.78° C | 89% | 1033.7 hPa | - | - | - | - |
| 1777518136 | -2.78° C | 88% | 1033.4 hPa | - | - | - | - |
| 1777516936 | -2.78° C | 87% | 1033.4 hPa | - | - | - | - |
| 1777515734 | -2.78° C | 87% | 1033.3 hPa | - | - | - | - |
| 1777514534 | -2.22° C | 86% | 1033.2 hPa | - | - | - | - |
| 1777513333 | -2.22° C | 86% | 1033.2 hPa | - | - | - | - |
| 1777512132 | -2.22° C | 85% | 1033.1 hPa | - | - | - | - |
| 1777510931 | -2.22° C | 84% | 1033 hPa | - | - | - | - |
* Rain since midnight (hover to see other rain measurements)
** Current wind speed in m/s (hover to see current wind gust speed)